createdAt,value
2022-09-06T04:42:07.511Z,3.20
2022-09-06T04:44:35.673Z,2.83
2022-09-06T04:50:03.053Z,2.63
2022-09-06T04:52:31.212Z,3.05
2022-09-06T04:54:59.638Z,3.15
2022-09-06T04:57:29.225Z,3.40
2022-09-06T04:59:57.489Z,3.08
2022-09-06T05:02:25.796Z,3.03
2022-09-06T05:04:54.857Z,2.80
2022-09-06T05:07:23.038Z,2.65
2022-09-06T05:09:51.169Z,2.72
2022-09-06T05:12:19.420Z,2.67
2022-09-06T05:14:49.196Z,3.00
2022-09-06T05:17:17.343Z,2.78
2022-09-06T05:19:45.548Z,2.35
2022-09-06T05:22:13.769Z,2.53
2022-09-06T05:24:41.991Z,2.22
2022-09-06T05:27:10.156Z,2.20
2022-09-06T05:29:38.404Z,2.42
2022-09-06T05:32:08.452Z,2.20
2022-09-06T05:34:36.675Z,2.05
2022-09-06T05:37:05.022Z,2.20
2022-09-06T05:39:33.361Z,2.28
2022-09-06T05:42:06.543Z,2.58
2022-09-06T05:44:35.205Z,2.55
2022-09-06T05:47:03.733Z,2.17
2022-09-06T05:49:33.786Z,2.05
2022-09-06T05:52:02.354Z,2.55
2022-09-06T05:54:30.569Z,2.10
2022-09-06T05:56:58.739Z,2.30
2022-09-06T05:59:27.375Z,2.60
2022-09-06T06:01:56.036Z,2.50
2022-09-06T06:04:24.372Z,2.50
2022-09-06T06:06:53.998Z,2.20
2022-09-06T06:09:22.192Z,2.65
2022-09-06T06:11:50.357Z,2.22
2022-09-06T06:14:18.528Z,2.90
2022-09-06T06:16:46.798Z,2.80
2022-09-06T06:19:15.388Z,2.60
2022-09-06T06:21:43.794Z,2.53
2022-09-06T06:24:13.349Z,2.35
2022-09-06T06:26:41.636Z,2.65
2022-09-06T06:29:09.844Z,2.85
2022-09-06T06:31:39.851Z,2.70
2022-09-06T06:34:08.716Z,3.00
2022-09-06T06:36:38.177Z,2.30
2022-09-06T06:39:08.971Z,2.15
2022-09-06T06:41:38.534Z,2.40
2022-09-06T06:44:07.627Z,2.60
2022-09-06T06:46:38.618Z,2.45
2022-09-06T06:51:37.287Z,2.42
2022-09-06T06:54:06.921Z,2.40
2022-09-06T06:56:40.781Z,2.08
2022-09-06T06:59:09.399Z,2.35
2022-09-06T07:01:38.358Z,2.60
2022-09-06T07:04:08.777Z,1.98
2022-09-06T07:12:27.667Z,2.30
2022-09-06T07:14:55.863Z,2.58
2022-09-06T07:17:24.172Z,2.92
2022-09-06T07:22:41.318Z,2.45
2022-09-06T07:25:12.222Z,2.33
2022-09-06T07:27:47.232Z,2.25
2022-09-06T07:30:16.579Z,2.28
2022-09-06T07:32:44.767Z,2.30
2022-09-06T07:35:13.885Z,2.00
2022-09-06T07:37:42.229Z,2.28
2022-09-06T07:40:12.231Z,2.08
2022-09-06T07:42:42.580Z,2.27
2022-09-06T07:45:11.491Z,2.13
2022-09-06T07:53:24.805Z,1.50
2022-09-06T07:55:59.195Z,2.00
2022-09-06T07:58:29.784Z,2.05
2022-09-06T08:01:26.053Z,1.90
2022-09-06T08:03:54.403Z,1.83
2022-09-06T08:06:23.563Z,2.13
2022-09-06T08:09:00.059Z,1.92
2022-09-06T08:11:33.175Z,1.70
2022-09-06T08:14:05.292Z,1.92
2022-09-06T08:16:36.104Z,1.40
2022-09-06T08:21:36.445Z,1.40
2022-09-06T08:24:07.023Z,1.88
2022-09-06T08:26:39.313Z,2.08
2022-09-06T08:29:10.808Z,2.15
2022-09-06T08:31:41.288Z,1.67
2022-09-06T08:34:12.585Z,2.33
2022-09-06T08:36:41.343Z,2.00
2022-09-06T08:39:10.919Z,2.10
2022-09-06T08:41:52.319Z,2.30
2022-09-06T08:47:16.239Z,1.23
2022-09-06T08:49:53.000Z,1.33
2022-09-06T08:53:16.050Z,2.08
2022-09-06T08:55:48.613Z,2.47
2022-09-06T08:58:54.851Z,3.50
2022-09-06T09:01:31.352Z,3.95
2022-09-06T09:04:04.372Z,4.07
2022-09-06T09:06:34.308Z,5.88
2022-09-06T09:09:07.281Z,6.30
2022-09-06T09:11:36.449Z,6.22
2022-09-06T09:14:09.992Z,6.72
2022-09-06T09:16:39.891Z,5.40
2022-09-06T09:19:09.409Z,7.82
2022-09-06T09:21:40.175Z,1.83
2022-09-06T09:24:11.483Z,1.70
2022-09-06T09:26:51.131Z,1.77
2022-09-06T09:29:23.959Z,1.63
2022-09-06T09:31:57.858Z,8.60
2022-09-06T09:34:33.665Z,9.55
2022-09-06T09:40:16.696Z,3.38
2022-09-06T09:42:46.012Z,1.30
2022-09-06T09:45:27.130Z,1.30
2022-09-06T09:47:57.186Z,1.10
2022-09-06T09:50:29.874Z,1.45
2022-09-06T09:53:08.514Z,1.77
2022-09-06T09:55:36.910Z,1.45
2022-09-06T09:58:07.127Z,2.13
2022-09-06T10:00:39.652Z,1.67
2022-09-06T10:03:18.637Z,1.27
2022-09-06T10:06:02.405Z,1.10
2022-09-06T10:08:34.259Z,4.82
2022-09-06T10:11:02.510Z,1.63
2022-09-06T10:13:33.585Z,2.40
2022-09-06T10:16:03.272Z,2.47
2022-09-06T10:18:35.462Z,1.85
2022-09-06T10:21:06.546Z,1.58
2022-09-06T10:26:52.354Z,1.17
2022-09-06T10:29:33.781Z,1.55
2022-09-06T10:32:26.357Z,1.85
2022-09-06T10:35:11.073Z,1.52
2022-09-06T10:38:20.948Z,3.70
2022-09-06T10:41:02.054Z,4.50
2022-09-06T10:43:39.388Z,2.28
2022-09-06T10:46:15.024Z,2.08
2022-09-06T10:48:47.170Z,2.33
2022-09-06T10:51:24.663Z,1.67
2022-09-06T10:53:56.592Z,1.48
2022-09-06T10:56:32.459Z,1.50
2022-09-06T11:02:10.241Z,0.90
2022-09-06T11:07:34.632Z,2.55
2022-09-06T11:10:07.867Z,4.35
2022-09-06T11:12:42.777Z,2.85
2022-09-06T11:15:15.626Z,5.05
2022-09-06T11:17:51.126Z,3.60
2022-09-06T11:20:31.247Z,3.63
2022-09-06T11:23:27.827Z,4.60
2022-09-06T11:26:34.467Z,2.17
2022-09-06T11:29:07.729Z,1.30
2022-09-06T11:34:44.096Z,3.33
2022-09-06T11:37:27.918Z,5.20
2022-09-06T11:40:30.629Z,5.13
2022-09-06T11:43:22.635Z,6.25
2022-09-06T11:45:53.301Z,2.10
2022-09-06T11:49:01.369Z,1.85
2022-09-06T11:51:36.682Z,5.88
2022-09-06T11:54:25.250Z,8.60
2022-09-06T11:56:59.821Z,6.78
2022-09-06T11:59:43.167Z,6.50
2022-09-06T12:02:42.875Z,53.72
2022-09-06T12:05:26.020Z,36.63
2022-09-06T12:08:33.442Z,49.67
2022-09-06T12:11:22.780Z,69.05
2022-09-06T12:14:03.287Z,53.38
2022-09-06T12:17:28.658Z,58.47
2022-09-06T12:20:06.353Z,49.75
2022-09-06T12:23:04.854Z,46.03
2022-09-06T12:25:56.414Z,65.07
2022-09-06T12:28:36.272Z,55.58
2022-09-06T12:31:38.044Z,61.40
2022-09-06T12:34:14.788Z,22.25
2022-09-06T12:37:02.229Z,25.95
2022-09-06T12:39:30.793Z,31.73
2022-09-06T12:42:03.198Z,31.70
2022-09-06T12:44:37.968Z,25.20
2022-09-06T12:47:16.702Z,22.98
2022-09-06T12:49:44.979Z,17.63
2022-09-06T12:52:16.237Z,16.98
2022-09-06T12:54:48.366Z,13.35
2022-09-06T12:57:21.485Z,11.93
2022-09-06T12:59:53.687Z,6.40
2022-09-06T13:02:33.436Z,7.97
2022-09-06T13:05:06.599Z,7.30
2022-09-06T13:07:36.681Z,7.47
2022-09-06T13:10:05.714Z,6.10
2022-09-06T13:12:36.488Z,6.80
2022-09-06T13:15:11.693Z,6.50
2022-09-06T13:17:41.499Z,5.55
2022-09-06T13:20:16.636Z,8.38
2022-09-06T13:22:48.768Z,6.85
2022-09-06T13:25:25.651Z,4.90
2022-09-06T13:27:58.019Z,3.10
2022-09-06T13:30:37.289Z,2.40
2022-09-06T13:33:08.487Z,2.28
2022-09-06T13:35:39.468Z,2.40
2022-09-06T13:38:42.168Z,2.53
2022-09-06T13:41:38.398Z,1.80
2022-09-06T13:44:08.936Z,1.63
2022-09-06T13:46:37.414Z,1.30
2022-09-06T13:49:07.089Z,1.30
2022-09-06T13:51:36.028Z,1.40
2022-09-06T13:54:09.229Z,1.35
2022-09-06T13:56:37.775Z,1.13
2022-09-06T13:59:07.053Z,1.20
2022-09-06T14:01:35.411Z,1.23
2022-09-06T14:04:05.934Z,1.23
2022-09-06T14:09:07.928Z,1.00
2022-09-06T14:11:37.135Z,1.10
2022-09-06T14:14:07.456Z,1.10
2022-09-06T14:16:35.786Z,0.63
2022-09-06T14:19:04.577Z,0.90
2022-09-06T14:21:34.173Z,1.60
2022-09-06T14:24:04.609Z,0.97
2022-09-06T14:26:34.457Z,0.95
2022-09-06T14:29:03.002Z,1.13
2022-09-06T14:31:32.510Z,0.80
2022-09-06T14:34:02.568Z,1.10
2022-09-06T14:36:34.586Z,0.68
2022-09-06T14:39:05.308Z,1.13
2022-09-06T14:41:33.812Z,0.95
2022-09-06T14:44:02.196Z,0.75
2022-09-06T14:46:30.822Z,0.52
2022-09-06T14:49:01.835Z,0.60
2022-09-06T14:51:31.142Z,0.50
2022-09-06T14:54:04.213Z,0.52
2022-09-06T14:56:32.493Z,0.70
2022-09-06T14:59:00.808Z,0.70
2022-09-06T15:01:35.721Z,0.55
2022-09-06T15:04:09.242Z,0.50
2022-09-06T15:06:40.823Z,0.70
2022-09-06T15:09:11.400Z,0.55
2022-09-06T15:11:42.393Z,0.50
2022-09-06T15:14:15.965Z,0.30
2022-09-06T15:16:44.639Z,0.50
2022-09-06T15:19:13.009Z,0.90
2022-09-06T15:21:41.974Z,0.70
2022-09-06T15:24:12.392Z,0.50
2022-09-06T15:29:09.659Z,0.57
2022-09-06T15:31:38.414Z,0.57
2022-09-06T15:34:07.832Z,0.57
2022-09-06T15:36:36.352Z,0.50
2022-09-06T15:39:07.494Z,2.17
2022-09-06T15:41:40.570Z,3.03
2022-09-06T15:44:11.849Z,36.40
2022-09-06T15:46:48.221Z,4.05
2022-09-06T15:49:19.257Z,2.88
2022-09-06T15:51:48.097Z,1.20
2022-09-06T15:54:19.202Z,0.60
2022-09-06T15:56:47.756Z,0.60
2022-09-06T15:59:15.956Z,0.55
2022-09-06T16:01:44.241Z,0.70
2022-09-06T16:04:12.468Z,0.73
2022-09-06T16:06:43.056Z,0.60
2022-09-06T16:11:42.949Z,0.60
2022-09-06T16:14:15.771Z,0.60
2022-09-06T16:16:44.743Z,0.88
2022-09-06T16:19:14.215Z,0.65
2022-09-06T16:21:44.389Z,0.80
2022-09-06T16:24:14.911Z,0.60
2022-09-06T16:29:17.927Z,0.70
2022-09-06T16:31:47.011Z,0.52
2022-09-06T16:34:16.384Z,0.75
2022-09-06T16:36:44.842Z,1.00
2022-09-06T16:39:13.025Z,1.20
2022-09-06T16:41:43.795Z,8.05
2022-09-06T16:44:16.578Z,1.80
2022-09-06T16:46:46.462Z,1.95
2022-09-06T16:49:16.903Z,4.53
2022-09-06T16:54:14.599Z,3.97
2022-09-06T16:56:43.176Z,12.63
2022-09-06T16:59:15.197Z,10.32
2022-09-06T17:01:44.510Z,6.22
2022-09-06T17:04:13.955Z,3.90
2022-09-06T17:06:45.629Z,3.28
2022-09-06T17:09:15.340Z,2.05
2022-09-06T17:11:43.558Z,1.92
2022-09-06T17:14:12.194Z,1.70
2022-09-06T17:16:59.536Z,1.75
2022-09-06T17:28:05.629Z,1.27
2022-09-06T17:30:34.467Z,0.90
2022-09-06T17:33:23.776Z,1.30
2022-09-06T17:36:17.845Z,1.05
2022-09-06T17:46:12.795Z,3.50
2022-09-06T17:48:43.557Z,8.75
2022-09-06T18:01:46.376Z,1.20
2022-09-06T18:04:16.388Z,1.30
2022-09-06T18:09:16.867Z,1.00
2022-09-06T18:11:47.098Z,1.17
2022-09-06T18:14:18.759Z,1.27
2022-09-06T18:16:49.229Z,1.33
2022-09-06T18:19:19.459Z,1.02
2022-09-06T18:21:48.984Z,1.23
2022-09-06T18:24:17.572Z,1.00
2022-09-06T18:26:46.557Z,1.13
2022-09-06T18:29:17.966Z,1.15
2022-09-06T18:31:46.334Z,1.50
2022-09-06T18:34:15.952Z,1.05
2022-09-06T18:36:45.660Z,1.20
2022-09-06T18:39:14.143Z,1.30
2022-09-06T18:41:59.749Z,1.13
2022-09-06T18:44:32.278Z,1.10
2022-09-06T18:47:02.211Z,1.15
2022-09-06T18:49:32.447Z,1.30
2022-09-06T18:52:13.900Z,1.10
2022-09-06T18:54:43.659Z,0.90
2022-09-06T18:57:13.029Z,1.08
2022-09-06T18:59:41.281Z,1.52
2022-09-06T19:02:09.735Z,2.10
2022-09-06T19:04:38.042Z,1.20
2022-09-06T19:07:07.714Z,9.38
2022-09-06T19:09:35.971Z,24.27
2022-09-06T19:12:04.872Z,9.38
2022-09-06T19:14:33.692Z,47.42
2022-09-06T19:17:01.908Z,28.30
2022-09-06T19:19:30.246Z,7.53
2022-09-06T19:21:58.508Z,2.88
2022-09-06T19:24:28.156Z,1.73
2022-09-06T19:26:56.365Z,1.60
2022-09-06T19:29:24.586Z,1.15
2022-09-06T19:31:54.427Z,1.60
2022-09-06T19:34:23.178Z,1.50
2022-09-06T19:36:55.140Z,1.70
2022-09-06T19:39:23.500Z,1.13
2022-09-06T19:41:53.112Z,1.20
2022-09-06T19:44:22.237Z,1.10
2022-09-06T19:46:51.126Z,1.15
2022-09-06T19:49:20.774Z,0.90
2022-09-06T19:51:51.262Z,1.17
2022-09-06T19:54:20.002Z,52.60
2022-09-06T19:56:48.570Z,13.88
2022-09-06T19:59:18.703Z,12.45
2022-09-06T20:01:47.957Z,8.45
2022-09-06T20:04:16.961Z,3.25
2022-09-06T20:06:45.482Z,2.67
2022-09-06T20:09:15.879Z,2.63
2022-09-06T20:11:44.708Z,2.00
2022-09-06T20:14:14.208Z,1.48
2022-09-06T20:16:44.043Z,1.50
2022-09-06T20:19:14.916Z,1.85
2022-09-06T20:24:12.690Z,1.45
2022-09-06T20:26:41.540Z,1.60
2022-09-06T20:29:09.887Z,1.40
2022-09-06T20:31:39.089Z,1.90
2022-09-06T20:34:08.884Z,1.42
2022-09-06T20:36:37.478Z,1.58
2022-09-06T20:39:06.142Z,1.30
2022-09-06T20:41:34.907Z,1.50
2022-09-06T20:44:03.958Z,1.33
2022-09-06T20:46:35.237Z,1.70
2022-09-06T20:49:05.393Z,1.55
2022-09-06T20:51:36.499Z,49.67
2022-09-06T20:54:06.431Z,2.58
2022-09-06T20:56:38.884Z,3.57
2022-09-06T20:59:09.485Z,1.75
2022-09-06T21:01:40.866Z,1.42
2022-09-06T21:04:11.499Z,1.30
2022-09-06T21:06:41.815Z,1.38
2022-09-06T21:09:13.142Z,1.23
2022-09-06T21:11:42.579Z,1.30
2022-09-06T21:14:11.381Z,1.20
2022-09-06T21:16:40.562Z,1.10
2022-09-06T21:19:11.335Z,1.10
2022-09-06T21:21:41.883Z,1.10
2022-09-06T21:24:11.723Z,1.02
2022-09-06T21:26:40.944Z,0.70
2022-09-06T21:29:09.178Z,1.00
2022-09-06T21:31:38.662Z,0.80
2022-09-06T21:34:15.600Z,0.85
2022-09-06T21:36:46.737Z,0.77
2022-09-06T21:39:15.304Z,0.80
2022-09-06T21:41:45.756Z,0.75
2022-09-06T21:44:14.741Z,0.90
2022-09-06T21:46:43.443Z,0.82
2022-09-06T21:49:14.118Z,0.75
2022-09-06T21:51:42.466Z,0.80
2022-09-06T21:54:12.316Z,0.93
2022-09-06T21:56:41.375Z,0.73
2022-09-06T21:59:10.887Z,0.60
2022-09-06T22:01:43.923Z,1.10
2022-09-06T22:04:13.976Z,1.10
2022-09-06T22:06:42.195Z,0.98
2022-09-06T22:09:13.173Z,1.20
2022-09-06T22:11:44.081Z,1.10
2022-09-06T22:14:14.747Z,1.50
2022-09-06T22:16:43.576Z,1.13
2022-09-06T22:19:12.637Z,1.40
2022-09-06T22:21:41.297Z,1.17
2022-09-06T22:24:12.949Z,1.20
2022-09-06T22:26:42.980Z,1.10
2022-09-06T22:29:15.095Z,0.93
2022-09-06T22:31:43.548Z,1.05
2022-09-06T22:34:12.251Z,1.58
2022-09-06T22:36:40.815Z,1.25
2022-09-06T22:39:09.585Z,1.35
2022-09-06T22:41:39.645Z,1.10
2022-09-06T22:44:08.086Z,1.40
2022-09-06T22:46:38.324Z,1.40
2022-09-06T22:49:06.890Z,1.85
2022-09-06T22:51:35.193Z,1.60
2022-09-06T22:54:04.586Z,0.80
2022-09-06T22:56:33.464Z,1.10
2022-09-06T22:59:03.610Z,0.80
2022-09-06T23:01:33.894Z,0.60
2022-09-06T23:04:02.270Z,0.60
2022-09-06T23:06:30.414Z,1.55
2022-09-06T23:08:58.665Z,2.35
2022-09-06T23:11:27.599Z,2.80
2022-09-06T23:13:57.337Z,3.30
2022-09-06T23:16:28.926Z,2.53
2022-09-06T23:18:57.747Z,1.90
2022-09-06T23:21:27.489Z,3.28
2022-09-06T23:23:56.969Z,2.47
2022-09-06T23:26:29.575Z,1.08
2022-09-06T23:28:58.135Z,1.58
2022-09-06T23:31:31.470Z,2.05
2022-09-06T23:34:02.009Z,1.73
2022-09-06T23:36:30.722Z,1.13
2022-09-06T23:38:59.763Z,1.70
2022-09-06T23:41:27.999Z,1.70
2022-09-06T23:43:56.505Z,1.77
2022-09-06T23:46:24.766Z,1.55
2022-09-06T23:48:54.355Z,1.75
2022-09-06T23:51:22.550Z,2.08
2022-09-06T23:53:50.791Z,1.98
2022-09-06T23:56:19.073Z,1.77
2022-09-06T23:58:47.276Z,2.13
